sensor_id;sensor_type;location;lat;lon;timestamp;temperature;humidity
12769;DHT22;6448;48.916;8.990;2023-03-20T00:00:08;15.10;60.50
12769;DHT22;6448;48.916;8.990;2023-03-20T00:01:11;15.10;59.80
12769;DHT22;6448;48.916;8.990;2023-03-20T00:02:18;15.10;59.80
12769;DHT22;6448;48.916;8.990;2023-03-20T00:03:19;14.90;59.70
12769;DHT22;6448;48.916;8.990;2023-03-20T00:04:21;15.20;59.90
12769;DHT22;6448;48.916;8.990;2023-03-20T00:05:24;15.10;59.70
12769;DHT22;6448;48.916;8.990;2023-03-20T00:06:27;15.10;59.80
12769;DHT22;6448;48.916;8.990;2023-03-20T00:07:28;15.10;59.80
12769;DHT22;6448;48.916;8.990;2023-03-20T00:08:30;15.10;59.80
12769;DHT22;6448;48.916;8.990;2023-03-20T00:09:31;15.10;59.70
12769;DHT22;6448;48.916;8.990;2023-03-20T00:10:35;15.10;59.60
12769;DHT22;6448;48.916;8.990;2023-03-20T00:11:42;15.30;59.80
12769;DHT22;6448;48.916;8.990;2023-03-20T00:12:47;15.20;59.70
12769;DHT22;6448;48.916;8.990;2023-03-20T00:13:48;15.10;59.60
12769;DHT22;6448;48.916;8.990;2023-03-20T00:14:52;15.20;59.50
12769;DHT22;6448;48.916;8.990;2023-03-20T00:15:53;15.30;59.60
12769;DHT22;6448;48.916;8.990;2023-03-20T00:16:55;15.10;59.50
12769;DHT22;6448;48.916;8.990;2023-03-20T00:17:56;15.10;59.50
12769;DHT22;6448;48.916;8.990;2023-03-20T00:18:58;15.10;59.50
12769;DHT22;6448;48.916;8.990;2023-03-20T00:19:59;15.20;59.50
12769;DHT22;6448;48.916;8.990;2023-03-20T00:21:00;15.20;59.50
12769;DHT22;6448;48.916;8.990;2023-03-20T00:22:02;15.10;59.50
12769;DHT22;6448;48.916;8.990;2023-03-20T00:23:03;15.10;59.50
12769;DHT22;6448;48.916;8.990;2023-03-20T00:24:06;15.10;59.60
12769;DHT22;6448;48.916;8.990;2023-03-20T00:25:11;15.10;59.70
12769;DHT22;6448;48.916;8.990;2023-03-20T00:26:14;15.10;59.70
12769;DHT22;6448;48.916;8.990;2023-03-20T00:27:16;15.10;59.70
12769;DHT22;6448;48.916;8.990;2023-03-20T00:28:33;15.20;59.80
12769;DHT22;6448;48.916;8.990;2023-03-20T00:29:36;15.10;59.70
12769;DHT22;6448;48.916;8.990;2023-03-20T00:30:40;15.10;59.70
12769;DHT22;6448;48.916;8.990;2023-03-20T00:31:41;15.10;59.70
12769;DHT22;6448;48.916;8.990;2023-03-20T00:32:43;15.10;59.60
12769;DHT22;6448;48.916;8.990;2023-03-20T00:33:45;15.10;59.60
12769;DHT22;6448;48.916;8.990;2023-03-20T00:34:46;15.20;59.80
12769;DHT22;6448;48.916;8.990;2023-03-20T00:35:47;15.30;59.80
12769;DHT22;6448;48.916;8.990;2023-03-20T00:36:49;15.10;59.60
12769;DHT22;6448;48.916;8.990;2023-03-20T00:37:51;15.10;59.50
12769;DHT22;6448;48.916;8.990;2023-03-20T00:38:53;15.40;59.70
12769;DHT22;6448;48.916;8.990;2023-03-20T00:39:55;15.40;59.60
12769;DHT22;6448;48.916;8.990;2023-03-20T00:40:57;15.10;59.50
12769;DHT22;6448;48.916;8.990;2023-03-20T00:42:01;15.30;59.60
12769;DHT22;6448;48.916;8.990;2023-03-20T00:43:05;15.20;59.60
12769;DHT22;6448;48.916;8.990;2023-03-20T00:44:18;15.10;59.60
12769;DHT22;6448;48.916;8.990;2023-03-20T00:45:20;15.10;59.60
12769;DHT22;6448;48.916;8.990;2023-03-20T00:46:23;15.10;59.60
12769;DHT22;6448;48.916;8.990;2023-03-20T00:47:25;15.10;59.70
12769;DHT22;6448;48.916;8.990;2023-03-20T00:48:28;15.10;59.80
12769;DHT22;6448;48.916;8.990;2023-03-20T00:49:31;15.10;59.70
12769;DHT22;6448;48.916;8.990;2023-03-20T00:50:34;15.10;59.60
12769;DHT22;6448;48.916;8.990;2023-03-20T00:51:34;15.10;59.50
12769;DHT22;6448;48.916;8.990;2023-03-20T00:52:37;15.10;59.50
12769;DHT22;6448;48.916;8.990;2023-03-20T00:53:38;15.40;59.60
12769;DHT22;6448;48.916;8.990;2023-03-20T00:54:40;15.10;59.60
12769;DHT22;6448;48.916;8.990;2023-03-20T00:55:40;15.10;59.60
12769;DHT22;6448;48.916;8.990;2023-03-20T00:56:44;15.10;59.70
12769;DHT22;6448;48.916;8.990;2023-03-20T00:57:48;15.10;59.80
12769;DHT22;6448;48.916;8.990;2023-03-20T00:58:52;15.10;59.80
12769;DHT22;6448;48.916;8.990;2023-03-20T00:59:55;15.10;59.90
12769;DHT22;6448;48.916;8.990;2023-03-20T01:00:58;15.20;59.90
12769;DHT22;6448;48.916;8.990;2023-03-20T01:02:01;15.10;59.80
12769;DHT22;6448;48.916;8.990;2023-03-20T01:03:10;15.20;59.90
12769;DHT22;6448;48.916;8.990;2023-03-20T01:04:14;15.10;59.90
12769;DHT22;6448;48.916;8.990;2023-03-20T01:05:17;15.10;59.90
12769;DHT22;6448;48.916;8.990;2023-03-20T01:06:19;15.10;59.90
12769;DHT22;6448;48.916;8.990;2023-03-20T01:07:21;15.20;59.90
12769;DHT22;6448;48.916;8.990;2023-03-20T01:08:23;15.10;59.80
12769;DHT22;6448;48.916;8.990;2023-03-20T01:09:26;15.10;59.80
12769;DHT22;6448;48.916;8.990;2023-03-20T01:10:29;15.10;59.80
12769;DHT22;6448;48.916;8.990;2023-03-20T01:11:31;15.10;59.80
12769;DHT22;6448;48.916;8.990;2023-03-20T01:12:32;15.00;59.80
12769;DHT22;6448;48.916;8.990;2023-03-20T01:13:34;15.10;59.80
12769;DHT22;6448;48.916;8.990;2023-03-20T01:14:37;15.10;59.90
12769;DHT22;6448;48.916;8.990;2023-03-20T01:15:39;15.20;59.90
12769;DHT22;6448;48.916;8.990;2023-03-20T01:16:41;15.10;59.80
12769;DHT22;6448;48.916;8.990;2023-03-20T01:17:44;15.00;59.80
12769;DHT22;6448;48.916;8.990;2023-03-20T01:18:46;15.10;59.80
12769;DHT22;6448;48.916;8.990;2023-03-20T01:19:48;15.10;59.90
12769;DHT22;6448;48.916;8.990;2023-03-20T01:20:49;15.30;60.00
12769;DHT22;6448;48.916;8.990;2023-03-20T01:21:52;15.10;59.90
12769;DHT22;6448;48.916;8.990;2023-03-20T01:22:53;15.30;60.10
12769;DHT22;6448;48.916;8.990;2023-03-20T01:23:55;15.10;60.00
12769;DHT22;6448;48.916;8.990;2023-03-20T01:24:56;15.10;60.00
12769;DHT22;6448;48.916;8.990;2023-03-20T01:25:58;15.10;59.90
12769;DHT22;6448;48.916;8.990;2023-03-20T01:27:00;15.10;59.80
12769;DHT22;6448;48.916;8.990;2023-03-20T01:28:12;15.10;59.80
12769;DHT22;6448;48.916;8.990;2023-03-20T01:29:18;15.10;59.90
12769;DHT22;6448;48.916;8.990;2023-03-20T01:30:22;15.10;59.80
12769;DHT22;6448;48.916;8.990;2023-03-20T01:31:23;15.10;59.90
12769;DHT22;6448;48.916;8.990;2023-03-20T01:32:24;15.10;59.80
12769;DHT22;6448;48.916;8.990;2023-03-20T01:33:27;15.10;59.90
12769;DHT22;6448;48.916;8.990;2023-03-20T01:34:30;15.10;59.90
12769;DHT22;6448;48.916;8.990;2023-03-20T01:35:31;15.10;59.90
12769;DHT22;6448;48.916;8.990;2023-03-20T01:36:37;15.10;59.80
12769;DHT22;6448;48.916;8.990;2023-03-20T01:37:39;15.00;60.60
12769;DHT22;6448;48.916;8.990;2023-03-20T01:38:44;15.10;60.00
12769;DHT22;6448;48.916;8.990;2023-03-20T01:39:45;15.10;60.00
12769;DHT22;6448;48.916;8.990;2023-03-20T01:40:51;15.10;60.00
12769;DHT22;6448;48.916;8.990;2023-03-20T01:41:53;15.10;60.10
12769;DHT22;6448;48.916;8.990;2023-03-20T01:42:56;15.00;60.00
12769;DHT22;6448;48.916;8.990;2023-03-20T01:44:00;15.10;60.00
12769;DHT22;6448;48.916;8.990;2023-03-20T01:45:13;15.00;60.70
12769;DHT22;6448;48.916;8.990;2023-03-20T01:46:18;15.00;59.90
12769;DHT22;6448;48.916;8.990;2023-03-20T01:47:24;15.00;59.90
12769;DHT22;6448;48.916;8.990;2023-03-20T01:48:54;15.10;59.90
12769;DHT22;6448;48.916;8.990;2023-03-20T01:50:21;15.00;59.90
12769;DHT22;6448;48.916;8.990;2023-03-20T01:51:24;15.00;59.80
12769;DHT22;6448;48.916;8.990;2023-03-20T01:52:30;15.20;60.00
12769;DHT22;6448;48.916;8.990;2023-03-20T01:53:31;15.00;59.90
12769;DHT22;6448;48.916;8.990;2023-03-20T01:54:37;15.00;60.00
12769;DHT22;6448;48.916;8.990;2023-03-20T01:55:44;15.00;60.00
12769;DHT22;6448;48.916;8.990;2023-03-20T01:56:51;15.00;60.00
12769;DHT22;6448;48.916;8.990;2023-03-20T01:57:56;15.10;60.00
12769;DHT22;6448;48.916;8.990;2023-03-20T01:59:02;15.10;59.90
12769;DHT22;6448;48.916;8.990;2023-03-20T02:00:06;15.00;59.90
12769;DHT22;6448;48.916;8.990;2023-03-20T02:01:15;15.00;59.90
12769;DHT22;6448;48.916;8.990;2023-03-20T02:02:22;15.00;59.90
12769;DHT22;6448;48.916;8.990;2023-03-20T02:03:26;15.00;59.80
12769;DHT22;6448;48.916;8.990;2023-03-20T02:04:56;15.00;59.80
12769;DHT22;6448;48.916;8.990;2023-03-20T02:05:59;15.00;60.00
12769;DHT22;6448;48.916;8.990;2023-03-20T02:07:04;15.00;60.00
12769;DHT22;6448;48.916;8.990;2023-03-20T02:08:22;15.00;59.90
12769;DHT22;6448;48.916;8.990;2023-03-20T02:09:24;15.00;59.90
12769;DHT22;6448;48.916;8.990;2023-03-20T02:10:25;15.00;59.90
12769;DHT22;6448;48.916;8.990;2023-03-20T02:11:40;15.00;59.90
12769;DHT22;6448;48.916;8.990;2023-03-20T02:12:43;15.00;60.00
12769;DHT22;6448;48.916;8.990;2023-03-20T02:13:50;15.00;60.00
12769;DHT22;6448;48.916;8.990;2023-03-20T02:14:52;15.00;60.00
12769;DHT22;6448;48.916;8.990;2023-03-20T02:16:04;15.00;60.00
12769;DHT22;6448;48.916;8.990;2023-03-20T02:17:21;14.90;60.00
12769;DHT22;6448;48.916;8.990;2023-03-20T02:18:31;14.90;60.10
12769;DHT22;6448;48.916;8.990;2023-03-20T02:19:41;14.90;60.10
12769;DHT22;6448;48.916;8.990;2023-03-20T02:20:55;15.00;60.20
12769;DHT22;6448;48.916;8.990;2023-03-20T02:22:23;14.90;60.10
12769;DHT22;6448;48.916;8.990;2023-03-20T02:23:56;15.00;60.10
12769;DHT22;6448;48.916;8.990;2023-03-20T02:27:01;14.90;60.10
12769;DHT22;6448;48.916;8.990;2023-03-20T02:28:32;15.00;60.10
12769;DHT22;6448;48.916;8.990;2023-03-20T02:34:59;14.90;60.20
12769;DHT22;6448;48.916;8.990;2023-03-20T02:36:45;14.90;60.10
12769;DHT22;6448;48.916;8.990;2023-03-20T02:38:08;14.90;60.10
12769;DHT22;6448;48.916;8.990;2023-03-20T02:39:29;14.90;60.10
12769;DHT22;6448;48.916;8.990;2023-03-20T02:40:35;14.90;60.10
12769;DHT22;6448;48.916;8.990;2023-03-20T02:41:43;14.90;60.00
12769;DHT22;6448;48.916;8.990;2023-03-20T02:42:55;14.90;60.00
12769;DHT22;6448;48.916;8.990;2023-03-20T02:44:03;14.90;59.90
12769;DHT22;6448;48.916;8.990;2023-03-20T02:45:12;14.90;59.90
12769;DHT22;6448;48.916;8.990;2023-03-20T02:46:24;14.90;59.90
12769;DHT22;6448;48.916;8.990;2023-03-20T02:47:31;14.90;60.00
12769;DHT22;6448;48.916;8.990;2023-03-20T02:48:46;15.00;60.00
12769;DHT22;6448;48.916;8.990;2023-03-20T02:50:02;14.90;60.00
12769;DHT22;6448;48.916;8.990;2023-03-20T02:51:12;14.90;59.90
12769;DHT22;6448;48.916;8.990;2023-03-20T02:52:18;14.90;59.90
12769;DHT22;6448;48.916;8.990;2023-03-20T02:53:34;15.00;59.80
12769;DHT22;6448;48.916;8.990;2023-03-20T02:54:43;14.90;59.70
12769;DHT22;6448;48.916;8.990;2023-03-20T02:55:54;14.90;59.70
12769;DHT22;6448;48.916;8.990;2023-03-20T02:57:01;14.90;59.70
12769;DHT22;6448;48.916;8.990;2023-03-20T02:58:11;14.90;59.60
12769;DHT22;6448;48.916;8.990;2023-03-20T02:59:21;15.10;59.80
12769;DHT22;6448;48.916;8.990;2023-03-20T03:00:28;14.90;59.70
12769;DHT22;6448;48.916;8.990;2023-03-20T03:01:35;14.90;59.60
12769;DHT22;6448;48.916;8.990;2023-03-20T03:02:40;14.90;59.60
12769;DHT22;6448;48.916;8.990;2023-03-20T03:03:45;15.00;59.50
12769;DHT22;6448;48.916;8.990;2023-03-20T03:04:50;14.90;59.40
12769;DHT22;6448;48.916;8.990;2023-03-20T03:05:55;14.90;59.50
12769;DHT22;6448;48.916;8.990;2023-03-20T03:06:57;14.80;59.40
12769;DHT22;6448;48.916;8.990;2023-03-20T03:08:02;14.80;59.30
12769;DHT22;6448;48.916;8.990;2023-03-20T03:09:11;14.80;59.30
12769;DHT22;6448;48.916;8.990;2023-03-20T03:10:17;14.80;59.30
12769;DHT22;6448;48.916;8.990;2023-03-20T03:11:19;14.80;59.30
12769;DHT22;6448;48.916;8.990;2023-03-20T03:12:24;14.80;59.30
12769;DHT22;6448;48.916;8.990;2023-03-20T03:13:30;14.80;59.20
12769;DHT22;6448;48.916;8.990;2023-03-20T03:14:39;14.80;59.30
12769;DHT22;6448;48.916;8.990;2023-03-20T03:15:48;14.80;59.40
12769;DHT22;6448;48.916;8.990;2023-03-20T03:16:51;14.80;59.50
12769;DHT22;6448;48.916;8.990;2023-03-20T03:17:54;14.80;59.60
12769;DHT22;6448;48.916;8.990;2023-03-20T03:19:02;14.80;59.70
12769;DHT22;6448;48.916;8.990;2023-03-20T03:20:13;14.80;59.70
12769;DHT22;6448;48.916;8.990;2023-03-20T03:21:17;14.80;59.80
12769;DHT22;6448;48.916;8.990;2023-03-20T03:22:19;14.80;59.70
12769;DHT22;6448;48.916;8.990;2023-03-20T03:23:27;14.70;59.60
12769;DHT22;6448;48.916;8.990;2023-03-20T03:24:32;14.80;59.60
12769;DHT22;6448;48.916;8.990;2023-03-20T03:25:36;14.70;59.60
12769;DHT22;6448;48.916;8.990;2023-03-20T03:26:39;14.70;59.60
12769;DHT22;6448;48.916;8.990;2023-03-20T03:27:43;14.70;59.70
12769;DHT22;6448;48.916;8.990;2023-03-20T03:28:48;14.70;59.80
12769;DHT22;6448;48.916;8.990;2023-03-20T03:29:52;14.70;59.70
12769;DHT22;6448;48.916;8.990;2023-03-20T03:30:56;15.00;59.80
12769;DHT22;6448;48.916;8.990;2023-03-20T03:32:00;14.70;59.50
12769;DHT22;6448;48.916;8.990;2023-03-20T03:33:11;14.70;59.50
12769;DHT22;6448;48.916;8.990;2023-03-20T03:34:15;14.70;59.50
12769;DHT22;6448;48.916;8.990;2023-03-20T03:35:19;14.70;59.40
12769;DHT22;6448;48.916;8.990;2023-03-20T03:36:28;14.70;59.40
12769;DHT22;6448;48.916;8.990;2023-03-20T03:37:40;14.70;59.50
12769;DHT22;6448;48.916;8.990;2023-03-20T03:38:46;14.70;59.60
12769;DHT22;6448;48.916;8.990;2023-03-20T03:40:00;14.90;60.10
12769;DHT22;6448;48.916;8.990;2023-03-20T03:41:12;14.60;59.70
12769;DHT22;6448;48.916;8.990;2023-03-20T03:42:23;14.60;59.60
12769;DHT22;6448;48.916;8.990;2023-03-20T03:43:28;14.60;59.20
12769;DHT22;6448;48.916;8.990;2023-03-20T03:44:36;14.60;59.70
12769;DHT22;6448;48.916;8.990;2023-03-20T03:45:45;14.60;59.80
12769;DHT22;6448;48.916;8.990;2023-03-20T03:46:52;14.60;59.80
12769;DHT22;6448;48.916;8.990;2023-03-20T03:47:57;14.60;59.90
12769;DHT22;6448;48.916;8.990;2023-03-20T03:49:01;14.80;60.00
12769;DHT22;6448;48.916;8.990;2023-03-20T03:50:07;14.60;60.00
12769;DHT22;6448;48.916;8.990;2023-03-20T03:51:13;14.60;60.00
12769;DHT22;6448;48.916;8.990;2023-03-20T03:52:31;14.60;59.90
12769;DHT22;6448;48.916;8.990;2023-03-20T03:53:39;14.60;59.90
12769;DHT22;6448;48.916;8.990;2023-03-20T03:54:44;14.60;59.90
12769;DHT22;6448;48.916;8.990;2023-03-20T03:56:09;14.60;59.80
12769;DHT22;6448;48.916;8.990;2023-03-20T03:57:14;14.60;59.80
12769;DHT22;6448;48.916;8.990;2023-03-20T03:58:18;14.60;59.70
12769;DHT22;6448;48.916;8.990;2023-03-20T03:59:25;14.60;59.70
12769;DHT22;6448;48.916;8.990;2023-03-20T04:00:28;14.70;59.80
12769;DHT22;6448;48.916;8.990;2023-03-20T04:01:31;14.60;59.80
12769;DHT22;6448;48.916;8.990;2023-03-20T04:02:35;14.60;59.70
12769;DHT22;6448;48.916;8.990;2023-03-20T04:03:39;14.60;59.70
12769;DHT22;6448;48.916;8.990;2023-03-20T04:04:43;14.60;59.80
12769;DHT22;6448;48.916;8.990;2023-03-20T04:05:47;14.60;59.80
12769;DHT22;6448;48.916;8.990;2023-03-20T04:06:49;14.60;59.90
12769;DHT22;6448;48.916;8.990;2023-03-20T04:07:55;14.60;59.80
12769;DHT22;6448;48.916;8.990;2023-03-20T04:08:57;14.60;59.90
12769;DHT22;6448;48.916;8.990;2023-03-20T04:09:59;14.60;59.90
12769;DHT22;6448;48.916;8.990;2023-03-20T04:11:00;14.70;59.90
12769;DHT22;6448;48.916;8.990;2023-03-20T04:12:05;14.60;59.80
12769;DHT22;6448;48.916;8.990;2023-03-20T04:13:06;14.60;59.80
12769;DHT22;6448;48.916;8.990;2023-03-20T04:14:09;14.60;59.80
12769;DHT22;6448;48.916;8.990;2023-03-20T04:15:12;14.70;60.00
12769;DHT22;6448;48.916;8.990;2023-03-20T04:16:14;14.70;60.00
12769;DHT22;6448;48.916;8.990;2023-03-20T04:17:16;14.60;60.00
12769;DHT22;6448;48.916;8.990;2023-03-20T04:18:18;14.50;60.00
12769;DHT22;6448;48.916;8.990;2023-03-20T04:19:21;14.60;60.00
12769;DHT22;6448;48.916;8.990;2023-03-20T04:20:22;14.40;59.80
12769;DHT22;6448;48.916;8.990;2023-03-20T04:21:23;14.60;59.90
12769;DHT22;6448;48.916;8.990;2023-03-20T04:22:26;14.60;59.90
12769;DHT22;6448;48.916;8.990;2023-03-20T04:23:28;14.60;60.00
12769;DHT22;6448;48.916;8.990;2023-03-20T04:24:29;14.60;60.00
12769;DHT22;6448;48.916;8.990;2023-03-20T04:25:30;14.60;60.00
12769;DHT22;6448;48.916;8.990;2023-03-20T04:26:32;14.60;60.00
12769;DHT22;6448;48.916;8.990;2023-03-20T04:27:34;14.60;60.00
12769;DHT22;6448;48.916;8.990;2023-03-20T04:28:43;14.60;60.00
12769;DHT22;6448;48.916;8.990;2023-03-20T04:30:03;14.70;60.00
12769;DHT22;6448;48.916;8.990;2023-03-20T04:31:24;14.60;60.00
12769;DHT22;6448;48.916;8.990;2023-03-20T04:32:44;14.60;59.90
12769;DHT22;6448;48.916;8.990;2023-03-20T04:34:01;14.60;59.90
12769;DHT22;6448;48.916;8.990;2023-03-20T04:35:32;14.60;60.00
12769;DHT22;6448;48.916;8.990;2023-03-20T04:36:37;14.60;60.00
12769;DHT22;6448;48.916;8.990;2023-03-20T04:37:44;14.50;59.80
12769;DHT22;6448;48.916;8.990;2023-03-20T04:38:45;14.60;59.80
12769;DHT22;6448;48.916;8.990;2023-03-20T04:39:47;14.60;59.80
12769;DHT22;6448;48.916;8.990;2023-03-20T04:40:48;14.70;60.60
12769;DHT22;6448;48.916;8.990;2023-03-20T04:41:50;14.60;59.70
12769;DHT22;6448;48.916;8.990;2023-03-20T04:42:52;14.90;59.90
12769;DHT22;6448;48.916;8.990;2023-03-20T04:43:54;14.70;59.70
12769;DHT22;6448;48.916;8.990;2023-03-20T04:44:56;14.60;59.60
12769;DHT22;6448;48.916;8.990;2023-03-20T04:45:59;14.60;59.60
12769;DHT22;6448;48.916;8.990;2023-03-20T04:47:01;14.70;59.60
12769;DHT22;6448;48.916;8.990;2023-03-20T04:48:04;14.60;59.60
12769;DHT22;6448;48.916;8.990;2023-03-20T04:49:05;14.60;59.60
12769;DHT22;6448;48.916;8.990;2023-03-20T04:50:08;14.50;59.60
12769;DHT22;6448;48.916;8.990;2023-03-20T04:51:10;14.60;59.70
12769;DHT22;6448;48.916;8.990;2023-03-20T04:52:38;14.70;59.80
12769;DHT22;6448;48.916;8.990;2023-03-20T04:53:40;14.60;59.80
12769;DHT22;6448;48.916;8.990;2023-03-20T04:54:41;14.60;59.80
12769;DHT22;6448;48.916;8.990;2023-03-20T04:55:43;14.70;59.80
12769;DHT22;6448;48.916;8.990;2023-03-20T04:56:45;14.60;59.80
12769;DHT22;6448;48.916;8.990;2023-03-20T04:57:53;14.60;59.80
12769;DHT22;6448;48.916;8.990;2023-03-20T04:58:54;14.60;59.80
12769;DHT22;6448;48.916;8.990;2023-03-20T04:59:57;14.60;60.00
12769;DHT22;6448;48.916;8.990;2023-03-20T05:00:59;14.60;60.00
12769;DHT22;6448;48.916;8.990;2023-03-20T05:02:00;14.60;60.00
12769;DHT22;6448;48.916;8.990;2023-03-20T05:03:01;14.60;60.00
12769;DHT22;6448;48.916;8.990;2023-03-20T05:04:03;14.60;60.00
12769;DHT22;6448;48.916;8.990;2023-03-20T05:05:07;14.60;60.00
12769;DHT22;6448;48.916;8.990;2023-03-20T05:06:10;14.60;59.90
12769;DHT22;6448;48.916;8.990;2023-03-20T05:07:14;14.70;60.00
12769;DHT22;6448;48.916;8.990;2023-03-20T05:08:28;14.60;59.90
12769;DHT22;6448;48.916;8.990;2023-03-20T05:09:33;14.70;59.90
12769;DHT22;6448;48.916;8.990;2023-03-20T05:10:37;14.60;59.90
12769;DHT22;6448;48.916;8.990;2023-03-20T05:11:44;14.60;59.90
12769;DHT22;6448;48.916;8.990;2023-03-20T05:13:07;14.70;59.90
12769;DHT22;6448;48.916;8.990;2023-03-20T05:14:33;14.60;59.90
12769;DHT22;6448;48.916;8.990;2023-03-20T05:15:54;14.60;59.80
12769;DHT22;6448;48.916;8.990;2023-03-20T05:17:12;14.60;59.80
12769;DHT22;6448;48.916;8.990;2023-03-20T05:18:33;14.70;59.80
12769;DHT22;6448;48.916;8.990;2023-03-20T05:20:01;14.70;59.90
12769;DHT22;6448;48.916;8.990;2023-03-20T05:21:13;14.70;59.90
12769;DHT22;6448;48.916;8.990;2023-03-20T05:22:53;14.70;59.90
12769;DHT22;6448;48.916;8.990;2023-03-20T05:24:27;14.70;60.60
12769;DHT22;6448;48.916;8.990;2023-03-20T05:25:39;14.70;59.80
12769;DHT22;6448;48.916;8.990;2023-03-20T05:26:54;14.70;59.80
12769;DHT22;6448;48.916;8.990;2023-03-20T05:28:16;14.80;59.80
12769;DHT22;6448;48.916;8.990;2023-03-20T05:29:25;14.70;59.80
12769;DHT22;6448;48.916;8.990;2023-03-20T05:30:42;14.70;59.80
12769;DHT22;6448;48.916;8.990;2023-03-20T05:32:15;14.70;59.80
12769;DHT22;6448;48.916;8.990;2023-03-20T05:33:32;14.70;60.00
12769;DHT22;6448;48.916;8.990;2023-03-20T05:34:51;14.70;60.00
12769;DHT22;6448;48.916;8.990;2023-03-20T05:35:58;14.70;60.10
12769;DHT22;6448;48.916;8.990;2023-03-20T05:37:22;14.70;60.00
12769;DHT22;6448;48.916;8.990;2023-03-20T05:38:33;14.70;60.10
12769;DHT22;6448;48.916;8.990;2023-03-20T05:40:11;14.70;60.10
12769;DHT22;6448;48.916;8.990;2023-03-20T05:41:26;14.70;60.10
12769;DHT22;6448;48.916;8.990;2023-03-20T05:42:38;14.70;60.10
12769;DHT22;6448;48.916;8.990;2023-03-20T05:43:59;14.70;60.10
12769;DHT22;6448;48.916;8.990;2023-03-20T05:45:27;14.70;60.00
12769;DHT22;6448;48.916;8.990;2023-03-20T05:46:44;14.70;60.00
12769;DHT22;6448;48.916;8.990;2023-03-20T05:47:52;14.70;60.00
12769;DHT22;6448;48.916;8.990;2023-03-20T05:49:08;14.70;60.10
12769;DHT22;6448;48.916;8.990;2023-03-20T05:50:29;14.60;60.00
12769;DHT22;6448;48.916;8.990;2023-03-20T05:52:09;14.70;59.90
12769;DHT22;6448;48.916;8.990;2023-03-20T05:53:16;14.70;59.70
12769;DHT22;6448;48.916;8.990;2023-03-20T05:54:36;14.70;59.80
12769;DHT22;6448;48.916;8.990;2023-03-20T05:55:49;14.80;59.90
12769;DHT22;6448;48.916;8.990;2023-03-20T05:57:08;14.70;59.90
12769;DHT22;6448;48.916;8.990;2023-03-20T05:58:26;14.70;59.90
12769;DHT22;6448;48.916;8.990;2023-03-20T05:59:36;14.70;59.90
12769;DHT22;6448;48.916;8.990;2023-03-20T06:00:59;14.70;59.90
12769;DHT22;6448;48.916;8.990;2023-03-20T06:02:21;14.70;59.90
12769;DHT22;6448;48.916;8.990;2023-03-20T06:03:32;14.80;59.90
12769;DHT22;6448;48.916;8.990;2023-03-20T06:04:43;14.70;59.90
12769;DHT22;6448;48.916;8.990;2023-03-20T06:05:54;14.70;60.00
12769;DHT22;6448;48.916;8.990;2023-03-20T06:06:55;14.70;60.00
12769;DHT22;6448;48.916;8.990;2023-03-20T06:07:57;14.80;60.00
12769;DHT22;6448;48.916;8.990;2023-03-20T06:08:59;14.70;59.90
12769;DHT22;6448;48.916;8.990;2023-03-20T06:10:00;14.50;59.90
12769;DHT22;6448;48.916;8.990;2023-03-20T06:11:04;14.70;59.90
12769;DHT22;6448;48.916;8.990;2023-03-20T06:12:08;14.70;59.90
12769;DHT22;6448;48.916;8.990;2023-03-20T06:13:11;14.80;60.00
12769;DHT22;6448;48.916;8.990;2023-03-20T06:14:14;14.70;60.00
12769;DHT22;6448;48.916;8.990;2023-03-20T06:15:21;14.60;59.90
12769;DHT22;6448;48.916;8.990;2023-03-20T06:16:29;14.70;60.00
12769;DHT22;6448;48.916;8.990;2023-03-20T06:17:31;14.70;60.00
12769;DHT22;6448;48.916;8.990;2023-03-20T06:18:36;14.70;60.00
12769;DHT22;6448;48.916;8.990;2023-03-20T06:19:39;14.70;59.90
12769;DHT22;6448;48.916;8.990;2023-03-20T06:20:40;14.70;59.90
12769;DHT22;6448;48.916;8.990;2023-03-20T06:21:43;14.70;59.90
12769;DHT22;6448;48.916;8.990;2023-03-20T06:22:47;14.70;59.90
12769;DHT22;6448;48.916;8.990;2023-03-20T06:23:50;14.70;59.90
12769;DHT22;6448;48.916;8.990;2023-03-20T06:24:51;14.60;59.90
12769;DHT22;6448;48.916;8.990;2023-03-20T06:25:54;14.70;60.00
12769;DHT22;6448;48.916;8.990;2023-03-20T06:26:55;14.70;59.90
12769;DHT22;6448;48.916;8.990;2023-03-20T06:27:58;14.70;59.90
12769;DHT22;6448;48.916;8.990;2023-03-20T06:28:59;14.90;59.90
12769;DHT22;6448;48.916;8.990;2023-03-20T06:30:02;14.80;59.80
12769;DHT22;6448;48.916;8.990;2023-03-20T06:31:08;14.70;59.60
12769;DHT22;6448;48.916;8.990;2023-03-20T06:32:09;14.70;59.60
12769;DHT22;6448;48.916;8.990;2023-03-20T06:33:12;14.70;59.60
12769;DHT22;6448;48.916;8.990;2023-03-20T06:34:28;14.70;59.70
12769;DHT22;6448;48.916;8.990;2023-03-20T06:35:31;14.70;59.70
12769;DHT22;6448;48.916;8.990;2023-03-20T06:36:32;14.70;59.70
12769;DHT22;6448;48.916;8.990;2023-03-20T06:37:40;14.60;59.70
12769;DHT22;6448;48.916;8.990;2023-03-20T06:38:46;14.70;59.80
12769;DHT22;6448;48.916;8.990;2023-03-20T06:39:50;14.70;60.60
12769;DHT22;6448;48.916;8.990;2023-03-20T06:40:51;14.70;59.80
12769;DHT22;6448;48.916;8.990;2023-03-20T06:41:52;14.70;59.80
12769;DHT22;6448;48.916;8.990;2023-03-20T06:42:57;14.70;59.70
12769;DHT22;6448;48.916;8.990;2023-03-20T06:44:07;14.70;59.70
12769;DHT22;6448;48.916;8.990;2023-03-20T06:45:34;14.70;59.70
12769;DHT22;6448;48.916;8.990;2023-03-20T06:46:40;14.70;59.80
12769;DHT22;6448;48.916;8.990;2023-03-20T06:47:41;14.70;59.80
12769;DHT22;6448;48.916;8.990;2023-03-20T06:48:43;14.70;59.90
12769;DHT22;6448;48.916;8.990;2023-03-20T06:49:44;14.70;60.00
12769;DHT22;6448;48.916;8.990;2023-03-20T06:50:46;14.70;60.10
12769;DHT22;6448;48.916;8.990;2023-03-20T06:51:50;14.70;60.20
12769;DHT22;6448;48.916;8.990;2023-03-20T06:52:58;14.70;60.20
12769;DHT22;6448;48.916;8.990;2023-03-20T06:54:05;14.70;60.30
12769;DHT22;6448;48.916;8.990;2023-03-20T06:55:08;14.70;60.20
12769;DHT22;6448;48.916;8.990;2023-03-20T06:56:09;14.70;60.20
12769;DHT22;6448;48.916;8.990;2023-03-20T06:57:14;14.70;60.20
12769;DHT22;6448;48.916;8.990;2023-03-20T06:58:18;14.70;60.10
12769;DHT22;6448;48.916;8.990;2023-03-20T06:59:23;14.60;59.90
12769;DHT22;6448;48.916;8.990;2023-03-20T07:00:29;14.60;59.70
12769;DHT22;6448;48.916;8.990;2023-03-20T07:01:31;14.70;59.60
12769;DHT22;6448;48.916;8.990;2023-03-20T07:02:34;14.80;59.60
12769;DHT22;6448;48.916;8.990;2023-03-20T07:03:36;14.90;59.60
12769;DHT22;6448;48.916;8.990;2023-03-20T07:04:37;14.70;59.50
12769;DHT22;6448;48.916;8.990;2023-03-20T07:05:39;14.70;59.40
12769;DHT22;6448;48.916;8.990;2023-03-20T07:06:42;14.70;59.50
12769;DHT22;6448;48.916;8.990;2023-03-20T07:07:45;14.70;59.50
12769;DHT22;6448;48.916;8.990;2023-03-20T07:08:46;14.70;59.50
12769;DHT22;6448;48.916;8.990;2023-03-20T07:09:48;14.80;59.60
12769;DHT22;6448;48.916;8.990;2023-03-20T07:10:49;14.70;59.60
12769;DHT22;6448;48.916;8.990;2023-03-20T07:11:51;14.90;59.60
12769;DHT22;6448;48.916;8.990;2023-03-20T07:12:54;14.70;59.50
12769;DHT22;6448;48.916;8.990;2023-03-20T07:13:56;14.70;59.50
12769;DHT22;6448;48.916;8.990;2023-03-20T07:15:10;14.80;59.50
12769;DHT22;6448;48.916;8.990;2023-03-20T07:16:13;14.70;59.40